Time;durP1;ratioP1;P1;durP2;ratioP2;P2;SDS_P1;SDS_P2;PMS_P1;PMS_P2;Temp;Humidity;BMP_temperature;BMP_pressure;BME280_temperature;BME280_humidity;BME280_pressure;Samples;Min_cycle;Max_cycle;Signal;HPM_P1;HPM_P2
2022/03/05 00:00:26;;;;;;;13.93;8.25;;;;;;;-1.42;100.00;101388.88;6083235;29;20047;-90
2022/03/05 00:03:28;;;;;;;15.98;7.32;;;;;;;-1.45;100.00;101388.94;6094656;29;20051;-90
2022/03/05 00:06:31;;;;;;;15.68;7.78;;;;;;;-1.49;100.00;101385.63;6093996;29;20436;-90
2022/03/05 00:09:33;;;;;;;12.27;6.75;;;;;;;-1.51;100.00;101382.25;6095315;29;20051;-90
2022/03/05 00:12:35;;;;;;;16.08;8.18;;;;;;;-1.55;100.00;101384.00;6094440;29;20058;-90
2022/03/05 00:15:37;;;;;;;14.75;6.72;;;;;;;-1.58;100.00;101381.50;6098865;29;20399;-89
2022/03/05 00:18:39;;;;;;;12.55;7.05;;;;;;;-1.61;100.00;101383.25;6077465;29;20048;-90
2022/03/05 00:21:42;;;;;;;14.98;7.25;;;;;;;-1.64;100.00;101391.75;6077399;29;20059;-90
2022/03/05 00:24:45;;;;;;;15.30;7.57;;;;;;;-1.65;100.00;101385.00;6098190;29;20051;-90
2022/03/05 00:27:47;;;;;;;15.18;6.88;;;;;;;-1.63;100.00;101390.06;6067661;29;20465;-90
2022/03/05 00:30:51;;;;;;;13.57;7.40;;;;;;;-1.63;100.00;101383.28;6082573;29;20572;-90
2022/03/05 00:33:52;;;;;;;17.83;7.78;;;;;;;-1.69;100.00;101387.59;6095211;29;20220;-89
2022/03/05 00:36:56;;;;;;;15.77;8.15;;;;;;;-1.72;100.00;101385.94;6081570;29;20397;-89
2022/03/05 00:39:58;;;;;;;17.58;7.80;;;;;;;-1.74;100.00;101390.19;6105040;29;20535;-89
2022/03/05 00:43:01;;;;;;;13.65;7.55;;;;;;;-1.78;100.00;101399.56;6082649;29;20406;-90
2022/03/05 00:46:03;;;;;;;17.02;7.75;;;;;;;-1.81;100.00;101403.84;6089266;29;20128;-89
2022/03/05 00:49:06;;;;;;;16.35;7.57;;;;;;;-1.85;100.00;101402.19;6083515;29;20044;-90
2022/03/05 00:52:08;;;;;;;17.75;8.43;;;;;;;-1.87;100.00;101411.53;6090760;29;20127;-89
2022/03/05 00:55:11;;;;;;;13.82;7.85;;;;;;;-1.89;100.00;101409.00;6094413;29;20047;-89
2022/03/05 00:58:14;;;;;;;16.17;7.97;;;;;;;-1.92;100.00;101413.28;6094273;29;20719;-90
2022/03/05 01:01:16;;;;;;;15.35;7.63;;;;;;;-1.97;100.00;101418.41;6089943;29;20060;-89
2022/03/05 01:04:19;;;;;;;14.27;7.45;;;;;;;-1.99;100.00;101412.50;6091954;29;20111;-89
2022/03/05 01:07:21;;;;;;;17.80;8.38;;;;;;;-2.03;100.00;101406.66;6093151;29;20107;-89
2022/03/05 01:10:24;;;;;;;16.25;7.60;;;;;;;-2.07;100.00;101405.00;6093535;29;20051;-89
2022/03/05 01:13:31;;;;;;;13.40;7.22;;;;;;;-2.08;100.00;101403.34;6075413;29;20891;-89
2022/03/05 01:16:35;;;;;;;14.63;7.28;;;;;;;-2.10;100.00;101410.13;6097188;29;20051;-89
2022/03/05 01:19:37;;;;;;;16.05;7.90;;;;;;;-2.11;100.00;101405.91;6099507;29;20048;-89
2022/03/05 01:22:39;;;;;;;18.60;8.02;;;;;;;-2.10;100.00;101394.06;6093472;29;20036;-89
2022/03/05 01:25:41;;;;;;;16.85;8.45;;;;;;;-2.14;100.00;101393.25;6093424;29;20119;-89
2022/03/05 01:28:43;;;;;;;15.13;7.93;;;;;;;-2.14;100.00;101397.50;6097522;29;20711;-89
2022/03/05 01:31:45;;;;;;;14.43;7.45;;;;;;;-2.17;100.00;101398.38;6099067;29;20048;-89
2022/03/05 01:34:48;;;;;;;19.15;8.20;;;;;;;-2.21;100.00;101399.25;6099117;29;20048;-89
2022/03/05 01:37:50;;;;;;;15.52;8.20;;;;;;;-2.21;100.00;101402.66;6089500;29;20806;-89
2022/03/05 01:40:52;;;;;;;17.80;8.10;;;;;;;-2.21;100.00;101400.13;6098591;29;20122;-89
2022/03/05 01:43:54;;;;;;;16.17;8.00;;;;;;;-2.23;100.00;101403.53;6065602;29;20068;-89
2022/03/05 01:47:01;;;;;;;16.92;7.85;;;;;;;-2.22;100.00;101390.81;6076699;29;20091;-89
2022/03/05 01:50:04;;;;;;;16.65;7.72;;;;;;;-2.25;100.00;101387.50;6098619;29;20856;-89
2022/03/05 01:53:07;;;;;;;17.05;8.43;;;;;;;-2.26;100.00;101388.31;6083136;29;20049;-89
2022/03/05 01:56:12;;;;;;;15.02;8.30;;;;;;;-2.29;100.00;101378.22;6081434;29;20724;-89
2022/03/05 01:59:15;;;;;;;17.73;8.27;;;;;;;-2.29;100.00;101385.84;6079032;29;20594;-89
2022/03/05 02:02:17;;;;;;;19.15;8.00;;;;;;;-2.31;100.00;101382.47;6098276;29;20584;-89
2022/03/05 02:05:20;;;;;;;20.00;8.80;;;;;;;-2.30;100.00;101382.47;6078676;29;20406;-89
2022/03/05 02:08:22;;;;;;;17.50;8.32;;;;;;;-2.34;100.00;101382.53;6094889;29;20039;-89
2022/03/05 02:11:26;;;;;;;13.23;7.22;;;;;;;-2.33;100.00;101376.59;6085438;29;20047;-89
2022/03/05 02:14:29;;;;;;;18.38;8.18;;;;;;;-2.32;100.00;101379.09;6072584;29;20196;-89
2022/03/05 02:17:31;;;;;;;18.02;8.52;;;;;;;-2.33;100.00;101379.16;6080149;29;20059;-89
2022/03/05 02:20:33;;;;;;;24.75;9.68;;;;;;;-2.34;100.00;101380.81;6075439;29;20059;-89
2022/03/05 02:23:37;;;;;;;15.98;7.25;;;;;;;-2.35;100.00;101375.78;6076996;29;20159;-89
2022/03/05 02:26:39;;;;;;;16.42;8.07;;;;;;;-2.40;100.00;101376.66;6079667;29;20146;-89
2022/03/05 02:29:58;;;;;;;19.52;9.23;;;;;;;-2.45;100.00;101375.88;6088911;29;20123;-89
2022/03/05 02:33:00;;;;;;;16.15;7.63;;;;;;;-2.42;100.00;101378.38;6076071;29;20075;-89
2022/03/05 02:36:04;;;;;;;18.38;8.18;;;;;;;-2.48;100.00;101375.94;6089540;29;20628;-89
2022/03/05 02:39:06;;;;;;;16.20;8.18;;;;;;;-2.48;100.00;101375.09;6082563;29;20040;-89
2022/03/05 02:42:08;;;;;;;20.05;8.25;;;;;;;-2.50;100.00;101375.09;6078620;29;20056;-89
2022/03/05 02:45:10;;;;;;;17.17;8.07;;;;;;;-2.48;100.00;101368.31;6101058;29;20043;-89
2022/03/05 02:48:14;;;;;;;19.10;8.68;;;;;;;-2.47;100.00;101366.63;6088491;29;20436;-89
2022/03/05 02:51:16;;;;;;;22.05;8.63;;;;;;;-2.44;100.00;101364.03;6093709;29;20125;-89
2022/03/05 02:54:19;;;;;;;19.33;9.07;;;;;;;-2.45;100.00;101370.81;6093230;29;20095;-89
2022/03/05 02:57:21;;;;;;;22.67;9.93;;;;;;;-2.48;100.00;101367.50;6090115;29;20410;-89
2022/03/05 03:00:23;;;;;;;17.85;8.80;;;;;;;-2.49;100.00;101360.72;6092027;29;20058;-89
2022/03/05 03:03:25;;;;;;;22.83;8.48;;;;;;;-2.53;100.00;101357.41;6074885;29;20048;-89
2022/03/05 03:06:28;;;;;;;20.42;8.50;;;;;;;-2.54;100.00;101365.00;6090659;29;20051;-89
2022/03/05 03:09:30;;;;;;;18.70;8.55;;;;;;;-2.55;100.00;101373.47;6074989;29;20043;-89
2022/03/05 03:12:33;;;;;;;21.83;8.90;;;;;;;-2.59;100.00;101365.06;6089541;29;20052;-89
2022/03/05 03:15:35;;;;;;;19.15;8.93;;;;;;;-2.57;100.00;101358.28;6092701;29;20041;-89
2022/03/05 03:18:38;;;;;;;17.25;9.15;;;;;;;-2.59;100.00;101359.97;6058533;29;20052;-89
2022/03/05 03:21:40;;;;;;;18.98;9.07;;;;;;;-2.66;100.00;101363.44;6063639;29;20055;-89
2022/03/05 03:24:44;;;;;;;22.38;9.38;;;;;;;-2.62;100.00;101362.56;6064763;29;20193;-89
2022/03/05 03:27:50;;;;;;;23.40;8.98;;;;;;;-2.63;100.00;101361.72;6099220;29;20052;-89
2022/03/05 03:30:52;;;;;;;18.67;9.00;;;;;;;-2.64;100.00;101356.66;6099469;29;20092;-89
2022/03/05 03:33:54;;;;;;;20.88;8.57;;;;;;;-2.65;100.00;101367.66;6103391;29;20123;-89
2022/03/05 03:36:56;;;;;;;20.05;9.38;;;;;;;-2.68;100.00;101367.72;6088548;29;20059;-89
2022/03/05 03:40:00;;;;;;;21.42;10.07;;;;;;;-2.68;100.00;101373.59;6075101;29;20059;-89
2022/03/05 03:43:03;;;;;;;25.42;9.43;;;;;;;-2.66;100.00;101373.56;6090367;29;20493;-89
2022/03/05 03:46:06;;;;;;;19.48;10.15;;;;;;;-2.70;100.00;101377.00;6082990;29;20044;-89
2022/03/05 03:49:08;;;;;;;23.65;10.18;;;;;;;-2.71;100.00;101371.09;6095330;29;20036;-89
2022/03/05 03:52:13;;;;;;;20.20;9.10;;;;;;;-2.71;100.00;101378.69;6088100;29;20047;-89
2022/03/05 03:55:17;;;;;;;24.00;9.85;;;;;;;-2.72;100.00;101376.19;6084603;29;20071;-89
2022/03/05 03:58:19;;;;;;;21.10;9.48;;;;;;;-2.73;100.00;101377.03;6101100;29;20160;-89
2022/03/05 04:01:22;;;;;;;23.30;9.80;;;;;;;-2.72;100.00;101383.78;6102403;29;20616;-89
2022/03/05 04:04:24;;;;;;;21.98;9.48;;;;;;;-2.78;100.00;101378.75;6080014;29;20054;-89
2022/03/05 04:10:47;;;;;;;18.35;8.75;;;;;;;-2.77;100.00;101390.59;6098830;29;20589;-89
2022/03/05 04:13:51;;;;;;;22.35;9.73;;;;;;;-2.82;100.00;101385.56;6067740;29;20066;-89
2022/03/05 04:16:54;;;;;;;22.20;9.90;;;;;;;-2.84;100.00;101390.63;6098869;29;20056;-89
2022/03/05 04:19:57;;;;;;;18.65;9.82;;;;;;;-2.85;100.00;101388.97;6099710;29;20048;-89
2022/03/05 04:22:59;;;;;;;20.60;9.25;;;;;;;-2.78;100.00;101401.56;6097153;29;20225;-89
2022/03/05 04:26:02;;;;;;;22.88;9.95;;;;;;;-2.84;100.00;101405.00;6078623;29;20052;-89
2022/03/05 04:29:17;;;;;;;20.98;9.93;;;;;;;-2.89;100.00;101397.44;6091341;29;20044;-89
2022/03/05 04:32:19;;;;;;;22.85;10.00;;;;;;;-2.90;100.00;101398.31;6064324;29;20055;-89
2022/03/05 04:35:22;;;;;;;20.98;10.35;;;;;;;-2.89;100.00;101397.44;6089337;29;20048;-89
2022/03/05 04:38:24;;;;;;;22.65;10.15;;;;;;;-2.89;100.00;101392.38;6094958;29;20060;-89
2022/03/05 04:41:28;;;;;;;23.42;10.23;;;;;;;-2.91;100.00;101398.31;6080567;29;20327;-89
2022/03/05 04:44:31;;;;;;;23.60;10.07;;;;;;;-2.96;100.00;101400.88;6079422;29;20052;-89
2022/03/05 04:47:34;;;;;;;22.48;9.80;;;;;;;-2.97;100.00;101401.75;6099569;29;20040;-89
2022/03/05 04:50:36;;;;;;;21.73;10.00;;;;;;;-2.96;100.00;101405.13;6117084;29;20059;-89
2022/03/05 04:53:38;;;;;;;22.92;10.02;;;;;;;-2.97;100.00;101404.28;6078353;29;20304;-89
2022/03/05 04:56:40;;;;;;;20.30;10.63;;;;;;;-2.95;100.00;101414.41;6093758;29;20040;-89
2022/03/05 04:59:42;;;;;;;21.50;10.88;;;;;;;-2.97;100.00;101409.34;6075806;29;20075;-89
2022/03/05 05:02:44;;;;;;;18.58;8.80;;;;;;;-2.97;100.00;101406.81;6083294;29;20056;-89
2022/03/05 05:05:47;;;;;;;22.20;9.35;;;;;;;-2.96;100.00;101411.00;6088597;29;20576;-89
2022/03/05 05:08:49;;;;;;;19.67;9.70;;;;;;;-2.95;100.00;101405.13;6089183;29;20051;-89
2022/03/05 05:11:51;;;;;;;21.67;10.48;;;;;;;-2.97;100.00;101406.81;6078747;29;20607;-89
2022/03/05 05:14:54;;;;;;;23.23;11.30;;;;;;;-2.96;100.00;101403.41;6091742;29;20048;-89
2022/03/05 05:17:59;;;;;;;23.27;10.32;;;;;;;-2.94;100.00;101411.84;6102825;29;20040;-89
2022/03/05 05:21:02;;;;;;;22.08;9.70;;;;;;;-2.98;100.00;101410.22;6091355;29;20052;-89
2022/03/05 05:24:04;;;;;;;23.33;9.30;;;;;;;-2.98;100.00;101410.22;6082879;29;20422;-89
2022/03/05 05:27:13;;;;;;;23.65;10.50;;;;;;;-2.97;100.00;101413.56;6064810;29;20072;-89
2022/03/05 05:30:15;;;;;;;19.23;9.25;;;;;;;-3.02;100.00;101411.09;6086724;29;20051;-89
2022/03/05 05:33:17;;;;;;;24.38;10.25;;;;;;;-2.98;100.00;101424.53;6080184;29;20556;-89
2022/03/05 05:36:20;;;;;;;20.75;10.00;;;;;;;-2.99;100.00;101421.19;6091713;29;20071;-89
2022/03/05 05:39:28;;;;;;;19.50;10.45;;;;;;;-3.01;100.00;101422.03;6074612;29;20198;-89
2022/03/05 05:42:31;;;;;;;24.58;10.77;;;;;;;-3.02;100.00;101421.22;6091047;29;20040;-88
2022/03/05 05:45:33;;;;;;;25.02;10.30;;;;;;;-3.00;100.00;101418.69;6091646;29;20127;-89
2022/03/05 05:48:35;;;;;;;19.42;9.07;;;;;;;-2.99;100.00;101422.88;6085107;29;20043;-89
2022/03/05 05:51:38;;;;;;;21.77;9.50;;;;;;;-2.99;100.00;101413.56;6082717;29;20501;-89
2022/03/05 05:54:40;;;;;;;18.75;9.52;;;;;;;-2.96;100.00;101418.59;6072800;29;20573;-89
2022/03/05 05:57:42;;;;;;;19.48;10.27;;;;;;;-2.98;100.00;101422.88;6093669;29;20118;-89
2022/03/05 06:00:44;;;;;;;23.58;10.88;;;;;;;-2.98;100.00;101422.00;6100588;29;20056;-89
2022/03/05 06:03:47;;;;;;;22.35;10.63;;;;;;;-2.96;100.00;101417.78;6085690;29;20199;-89
2022/03/05 06:06:49;;;;;;;23.73;10.20;;;;;;;-2.95;100.00;101427.91;6096890;29;20414;-89
2022/03/05 06:09:51;;;;;;;21.27;10.05;;;;;;;-2.91;100.00;101429.53;6104158;29;20422;-89
2022/03/05 06:12:54;;;;;;;21.27;9.90;;;;;;;-2.86;100.00;101435.44;6100422;29;20040;-89
2022/03/05 06:15:57;;;;;;;23.13;10.10;;;;;;;-2.87;100.00;101437.97;6093922;29;20043;-89
2022/03/05 06:19:11;;;;;;;20.80;10.43;;;;;;;-2.84;100.00;101436.25;6094906;29;20504;-89
2022/03/05 06:22:13;;;;;;;24.35;11.15;;;;;;;-2.79;100.00;101437.91;6074759;29;20446;-89
2022/03/05 06:25:19;;;;;;;19.90;9.88;;;;;;;-2.78;100.00;101439.56;6092089;29;20114;-89
2022/03/05 06:28:21;;;;;;;22.90;9.93;;;;;;;-2.77;100.00;101441.25;6076736;29;20067;-89
2022/03/05 06:31:24;;;;;;;21.27;9.57;;;;;;;-2.73;100.00;101443.75;6094119;29;20055;-89
2022/03/05 06:34:27;;;;;;;19.95;9.48;;;;;;;-2.65;100.00;101444.53;6077391;29;20508;-89
2022/03/05 06:37:30;;;;;;;21.75;10.35;;;;;;;-2.63;100.00;101432.69;6090431;29;20125;-89
2022/03/05 06:40:32;;;;;;;23.98;10.77;;;;;;;-2.57;100.00;101441.91;6098329;29;20187;-89
2022/03/05 06:43:34;;;;;;;20.02;9.40;;;;;;;-2.60;100.00;101452.09;6103687;29;20048;-89
2022/03/05 06:46:36;;;;;;;22.40;9.82;;;;;;;-2.53;100.00;101452.88;6098484;29;20051;-89
2022/03/05 06:49:38;;;;;;;22.48;10.07;;;;;;;-2.49;100.00;101447.72;6102777;29;20478;-89
2022/03/05 06:52:40;;;;;;;20.52;9.38;;;;;;;-2.47;100.00;101450.25;6089727;29;20045;-89
2022/03/05 06:55:42;;;;;;;23.60;10.05;;;;;;;-2.38;100.00;101452.72;6078915;29;20437;-89
2022/03/05 06:58:45;;;;;;;23.50;11.40;;;;;;;-2.25;100.00;101450.88;6113023;29;20052;-89
2022/03/05 07:01:47;;;;;;;22.88;10.50;;;;;;;-2.20;100.00;101454.19;6097586;29;20047;-89
2022/03/05 07:04:49;;;;;;;27.35;11.77;;;;;;;-2.18;100.00;101465.19;6092871;29;20047;-89
2022/03/05 07:07:52;;;;;;;21.30;10.55;;;;;;;-2.13;100.00;101465.97;6119082;29;20071;-89
2022/03/05 07:11:08;;;;;;;24.80;10.43;;;;;;;-2.10;100.00;101460.84;6101275;29;20616;-89
2022/03/05 07:14:09;;;;;;;24.48;10.73;;;;;;;-2.06;100.00;101459.97;6109541;29;20051;-89
2022/03/05 07:17:12;;;;;;;20.98;10.43;;;;;;;-1.96;100.00;101468.31;6109087;29;20051;-89
2022/03/05 07:20:14;;;;;;;23.45;10.80;;;;;;;-1.91;100.00;101468.22;6075647;29;20048;-89
2022/03/05 07:23:17;;;;;;;24.42;10.93;;;;;;;-1.94;100.00;101469.09;6092573;29;20583;-89
2022/03/05 07:26:19;;;;;;;21.42;10.25;;;;;;;-1.90;100.00;101472.47;6105864;29;20536;-89
2022/03/05 07:29:21;;;;;;;21.20;10.30;;;;;;;-1.85;100.00;101473.25;6110734;29;20051;-89
2022/03/05 07:32:23;;;;;;;24.73;11.32;;;;;;;-1.81;100.00;101485.06;6109504;29;20612;-89
2022/03/05 07:35:25;;;;;;;20.83;10.65;;;;;;;-1.76;100.00;101481.59;6101942;29;20051;-89
2022/03/05 07:38:28;;;;;;;22.45;11.15;;;;;;;-1.69;100.00;101486.56;6096923;29;20044;-89
2022/03/05 07:41:30;;;;;;;20.90;10.68;;;;;;;-1.67;100.00;101495.84;6091433;29;20178;-89
2022/03/05 07:44:32;;;;;;;24.40;11.73;;;;;;;-1.61;100.00;101489.88;6118340;29;20075;-89
2022/03/05 07:47:34;;;;;;;25.73;11.95;;;;;;;-1.53;100.00;101495.69;6105973;29;20615;-89
2022/03/05 07:50:37;;;;;;;20.67;10.52;;;;;;;-1.49;100.00;101494.78;6098912;29;20051;-89
2022/03/05 07:53:39;;;;;;;21.92;10.77;;;;;;;-1.42;100.00;101495.53;6101677;29;20253;-89
2022/03/05 07:56:41;;;;;;;23.67;10.45;;;;;;;-1.37;100.00;101498.84;6111559;29;20454;-89
2022/03/05 07:59:43;;;;;;;20.23;10.07;;;;;;;-1.33;100.00;101500.50;6103393;29;20055;-89
2022/03/05 08:02:46;;;;;;;25.25;12.02;;;;;;;-1.32;100.00;101495.41;6100631;29;20040;-89
2022/03/05 08:05:48;;;;;;;23.73;10.65;;;;;;;-1.27;100.00;101490.22;6087125;29;20450;-89
2022/03/05 08:08:52;;;;;;;22.05;10.13;;;;;;;-1.25;100.00;101501.22;6087514;29;20058;-89
2022/03/05 08:11:54;;;;;;;26.08;11.10;;;;;;;-1.14;100.00;101498.53;6100409;29;20052;-89
2022/03/05 08:14:56;;;;;;;18.33;10.38;;;;;;;-1.11;100.00;101496.78;6104601;29;20540;-89
2022/03/05 08:18:00;;;;;;;24.75;11.23;;;;;;;-1.11;100.00;101494.22;6093755;29;20044;-89
2022/03/05 08:21:03;;;;;;;20.33;10.95;;;;;;;-1.09;100.00;101491.69;6091766;29;20484;-89
2022/03/05 08:24:05;;;;;;;23.02;10.98;;;;;;;-1.03;100.00;101495.81;6072363;29;20052;-89
2022/03/05 08:27:08;;;;;;;21.15;10.07;;;;;;;-0.98;100.00;101499.13;6079041;29;20651;-89
2022/03/05 08:30:10;;;;;;;19.23;10.75;;;;;;;-0.89;100.00;101499.84;6082313;29;20503;-89
2022/03/05 08:33:12;;;;;;;21.13;11.10;;;;;;;-0.76;100.00;101492.00;6089458;29;20051;-89
2022/03/05 08:36:14;;;;;;;23.52;10.43;;;;;;;-0.73;100.00;101486.88;6081594;29;20059;-89
2022/03/05 08:39:16;;;;;;;21.52;11.82;;;;;;;-0.70;100.00;101486.81;6069307;29;20049;-89
2022/03/05 08:42:18;;;;;;;22.48;11.65;;;;;;;-0.63;100.00;101496.00;6074040;29;20040;-89
2022/03/05 08:45:20;;;;;;;26.40;13.25;;;;;;;-0.58;100.00;101493.41;6075674;29;20135;-89
2022/03/05 08:48:23;;;;;;;23.30;11.48;;;;;;;-0.52;100.00;101491.59;6083983;29;20062;-89
2022/03/05 08:51:25;;;;;;;19.38;9.82;;;;;;;-0.39;100.00;101484.59;6055165;29;20048;-89
2022/03/05 08:54:35;;;;;;;25.07;11.20;;;;;;;-0.28;100.00;101486.94;6091317;29;20550;-89
2022/03/05 08:57:39;;;;;;;20.30;10.20;;;;;;;-0.23;100.00;101493.59;6095550;29;20044;-89
2022/03/05 09:00:41;;;;;;;19.80;10.18;;;;;;;-0.17;100.00;101487.59;6086532;29;20044;-89
2022/03/05 09:03:44;;;;;;;24.33;10.77;;;;;;;-0.04;100.00;101488.19;6084919;29;20120;-89
2022/03/05 09:06:45;;;;;;;19.02;9.95;;;;;;;0.05;100.00;101482.06;6082364;29;20060;-89
2022/03/05 09:09:49;;;;;;;21.55;9.77;;;;;;;0.10;100.00;101483.66;6089554;29;20179;-90
2022/03/05 09:13:05;;;;;;;18.63;9.55;;;;;;;0.11;100.00;101481.94;6085606;29;20039;-90
2022/03/05 09:16:07;;;;;;;19.73;10.02;;;;;;;0.13;100.00;101488.69;6083734;29;20122;-90
2022/03/05 09:19:22;;;;;;;18.35;10.43;;;;;;;0.20;100.00;101481.78;6082734;29;20079;-90
2022/03/05 09:22:25;;;;;;;21.30;10.00;;;;;;;0.26;100.00;101483.34;6094623;29;20048;-90
2022/03/05 09:25:27;;;;;;;23.17;10.50;;;;;;;0.27;100.00;101478.19;6086446;29;20094;-90
2022/03/05 09:28:30;;;;;;;21.02;10.00;;;;;;;0.33;100.00;101483.19;6082768;29;20035;-90
2022/03/05 09:31:32;;;;;;;23.45;10.30;;;;;;;0.42;100.00;101485.53;6085421;29;20032;-90
2022/03/05 09:34:35;;;;;;;22.73;9.98;;;;;;;0.50;100.00;101476.88;6088749;29;20051;-90
2022/03/05 09:37:38;;;;;;;20.48;9.23;;;;;;;0.69;100.00;101479.84;6089260;29;20040;-90
2022/03/05 09:40:45;;;;;;;20.13;9.93;;;;;;;0.75;100.00;101479.75;6067980;29;20068;-90
2022/03/05 09:43:47;;;;;;;19.05;9.60;;;;;;;0.83;100.00;101477.84;6083675;29;20352;-90
2022/03/05 09:46:50;;;;;;;17.80;8.93;;;;;;;0.98;100.00;101469.84;6088385;29;20112;-90
2022/03/05 09:49:54;;;;;;;19.52;10.10;;;;;;;1.12;100.00;101471.19;6073519;29;20047;-90
2022/03/05 09:52:56;;;;;;;21.10;9.45;;;;;;;1.19;100.00;101476.13;6065350;29;20126;-90
2022/03/05 09:55:59;;;;;;;19.02;9.40;;;;;;;1.23;100.00;101480.28;6093491;29;20099;-90
2022/03/05 09:59:21;;;;;;;21.85;9.70;;;;;;;1.26;100.00;101474.25;6086873;29;20076;-90
2022/03/05 10:02:24;;;;;;;20.98;9.60;;;;;;;1.29;100.00;101471.63;6071078;29;20410;-90
2022/03/05 10:05:29;;;;;;;19.52;10.40;;;;;;;1.39;100.00;101477.31;6096337;29;20036;-90
2022/03/05 10:08:31;;;;;;;19.65;9.15;;;;;;;1.57;100.00;101481.16;6084115;29;20055;-90
2022/03/05 10:11:40;;;;;;;18.23;10.07;;;;;;;1.61;100.00;101478.44;6083262;29;20041;-90
2022/03/05 10:14:42;;;;;;;19.27;8.95;;;;;;;1.71;100.00;101473.94;6082736;29;20049;-90
2022/03/05 10:18:00;;;;;;;16.20;8.85;;;;;;;1.84;100.00;101475.31;6083048;29;20100;-90
2022/03/05 10:21:07;;;;;;;18.17;8.57;;;;;;;2.01;100.00;101476.53;6087021;29;20036;-90
2022/03/05 10:24:10;;;;;;;18.52;9.13;;;;;;;2.14;100.00;101473.59;6085806;29;20401;-91
2022/03/05 10:27:30;;;;;;;15.48;8.18;;;;;;;2.25;100.00;101477.56;6085414;29;20049;-90
2022/03/05 10:30:36;;;;;;;18.52;9.52;;;;;;;2.26;100.00;101469.00;6090411;29;20045;-91
2022/03/05 10:33:48;;;;;;;16.45;8.15;;;;;;;2.27;100.00;101463.88;6093569;29;20048;-91
2022/03/05 10:37:02;;;;;;;20.58;8.98;;;;;;;2.29;100.00;101461.28;6090898;29;20107;-90
2022/03/05 10:40:12;;;;;;;16.48;7.78;;;;;;;2.31;100.00;101468.00;6090583;29;20040;-91
2022/03/05 10:43:17;;;;;;;14.10;7.45;;;;;;;2.40;100.00;101463.50;6076991;29;20048;-91
2022/03/05 10:46:19;;;;;;;14.73;7.50;;;;;;;2.47;100.00;101459.88;6086159;29;20044;-91
2022/03/05 10:49:39;;;;;;;17.13;8.10;;;;;;;2.51;100.00;101469.97;6087252;29;20062;-91
2022/03/05 10:52:58;;;;;;;14.77;7.20;;;;;;;2.61;100.00;101462.00;6072140;29;20061;-91
2022/03/05 10:56:30;;;;;;;14.77;7.80;;;;;;;2.83;100.00;101457.91;6087646;29;20478;-91
2022/03/05 10:59:43;;;;;;;15.48;7.65;;;;;;;2.90;100.00;101451.69;6087928;29;20048;-91
2022/03/05 11:02:46;;;;;;;15.35;7.72;;;;;;;3.00;100.00;101454.81;6072563;29;20089;-91
2022/03/05 11:05:48;;;;;;;15.25;7.03;;;;;;;3.14;100.00;101457.75;6085963;29;20051;-90
2022/03/05 11:08:51;;;;;;;13.73;7.15;;;;;;;3.22;100.00;101450.66;6086674;29;20041;-90
2022/03/05 11:11:58;;;;;;;14.20;7.75;;;;;;;3.28;100.00;101454.75;6083973;29;20049;-90
2022/03/05 11:15:01;;;;;;;14.23;7.72;;;;;;;3.29;100.00;101453.84;6089585;29;20044;-90
2022/03/05 11:18:05;;;;;;;12.88;6.85;;;;;;;3.36;100.00;101445.09;6080402;29;20063;-90
2022/03/05 11:21:08;;;;;;;11.70;6.75;;;;;;;3.72;100.00;101448.97;6083249;29;20223;-90
2022/03/05 11:24:19;;;;;;;12.30;6.43;;;;;;;4.08;100.00;101445.06;6091821;29;20047;-90
2022/03/05 11:27:21;;;;;;;;;;;;;;;4.18;100.00;101450.69;6087247;29;20341;-90
2022/03/05 11:30:24;;;;;;;14.07;6.80;;;;;;;4.19;100.00;101448.97;6079448;29;20012;-90
2022/03/05 11:33:38;;;;;;;10.38;6.50;;;;;;;4.32;100.00;101445.91;6090487;29;20040;-90
2022/03/05 11:36:42;;;;;;;11.82;6.88;;;;;;;4.36;100.00;101445.78;6098650;29;20036;-90
2022/03/05 11:39:44;;;;;;;13.93;6.78;;;;;;;4.47;100.00;101447.03;6097320;29;20048;-90
2022/03/05 11:42:47;;;;;;;11.05;6.40;;;;;;;4.69;94.18;101439.31;6105132;29;20108;-90
2022/03/05 11:46:04;;;;;;;12.25;6.53;;;;;;;4.81;94.63;101438.00;6076785;29;20407;-91
2022/03/05 11:49:24;;;;;;;10.00;5.97;;;;;;;5.02;94.30;101431.19;6087486;29;20042;-91
2022/03/05 11:52:56;;;;;;;12.15;6.28;;;;;;;5.05;91.93;101432.78;6070206;29;20135;-91
2022/03/05 11:56:22;;;;;;;12.90;6.82;;;;;;;5.18;88.94;101421.09;6086355;29;20045;-91
2022/03/05 11:59:31;;;;;;;11.95;7.05;;;;;;;5.42;88.26;101423.53;6068449;29;20092;-91
2022/03/05 12:02:44;;;;;;;13.45;6.95;;;;;;;5.55;85.26;101425.50;6085820;29;20056;-91
2022/03/05 12:05:47;;;;;;;13.38;6.88;;;;;;;5.63;81.19;101424.31;6094112;29;20188;-91
2022/03/05 12:08:51;;;;;;;12.38;6.80;;;;;;;5.51;75.97;101423.94;6089452;29;20047;-91
2022/03/05 12:12:00;;;;;;;10.73;6.05;;;;;;;5.59;78.58;101421.06;6081874;29;20456;-91
2022/03/05 12:15:03;;;;;;;13.27;7.28;;;;;;;5.65;74.74;101419.97;6071324;29;20044;-91
2022/03/05 12:18:15;;;;;;;14.07;7.88;;;;;;;5.82;78.86;101413.16;6087436;29;20040;-91
2022/03/05 12:21:35;;;;;;;12.15;6.78;;;;;;;6.03;74.35;101406.25;6086885;29;20052;-91
2022/03/05 12:24:37;;;;;;;12.70;6.88;;;;;;;6.09;72.91;101407.72;6087299;29;21420;-91
2022/03/05 12:27:51;;;;;;;11.68;6.28;;;;;;;5.99;71.28;101406.47;6068157;29;20048;-90
2022/03/05 12:30:58;;;;;;;10.45;5.97;;;;;;;6.22;68.86;101411.38;6090291;29;20401;-90
2022/03/05 12:34:00;;;;;;;13.82;6.90;;;;;;;6.39;69.30;101402.06;6076889;29;20119;-91
2022/03/05 12:37:02;;;;;;;11.63;6.82;;;;;;;6.69;68.34;101394.59;6091093;29;20108;-91
2022/03/05 12:40:05;;;;;;;10.52;6.50;;;;;;;6.83;63.89;101391.34;6087531;29;20460;-91
2022/03/05 12:43:11;;;;;;;12.25;6.90;;;;;;;6.88;60.92;101384.22;6090621;29;20509;-91
2022/03/05 12:46:13;;;;;;;12.40;6.93;;;;;;;6.98;62.66;101385.47;6103574;29;20048;-91
2022/03/05 12:49:16;;;;;;;12.32;6.95;;;;;;;7.02;61.33;101380.97;6098057;29;20115;-91
2022/03/05 12:52:18;;;;;;;9.05;6.35;;;;;;;7.05;60.57;101380.81;6094395;29;20055;-91
2022/03/05 12:55:21;;;;;;;10.10;6.45;;;;;;;7.31;61.72;101377.75;6089951;29;20508;-90
2022/03/05 12:58:24;;;;;;;10.27;7.05;;;;;;;7.61;59.78;101389.13;6066846;29;20524;-91
2022/03/05 13:01:27;;;;;;;13.32;7.13;;;;;;;7.65;59.84;101383.72;6072917;29;20112;-91
2022/03/05 13:04:30;;;;;;;12.82;7.30;;;;;;;7.42;58.03;101382.34;6095955;29;20037;-91
2022/03/05 13:07:36;;;;;;;10.80;6.85;;;;;;;7.18;58.02;101379.31;6091313;29;20044;-91
2022/03/05 13:10:39;;;;;;;11.63;6.70;;;;;;;7.08;59.62;101378.94;6107351;29;20048;-91
2022/03/05 13:13:47;;;;;;;10.55;7.18;;;;;;;6.97;58.69;101376.06;6095345;29;20052;-91
2022/03/05 13:16:51;;;;;;;10.18;6.53;;;;;;;6.86;60.34;101381.75;6103322;29;20055;-91
2022/03/05 13:20:04;;;;;;;11.45;6.85;;;;;;;6.76;60.07;101380.53;6092117;29;20060;-91
2022/03/05 13:23:08;;;;;;;14.13;6.50;;;;;;;6.81;59.80;101375.16;6088970;29;20044;-91
2022/03/05 13:26:10;;;;;;;11.55;6.85;;;;;;;6.85;58.88;101380.06;6099201;29;20048;-92
2022/03/05 13:29:15;;;;;;;11.00;6.30;;;;;;;6.88;59.75;101386.78;6112407;29;20135;-92
2022/03/05 13:32:51;;;;;;;14.80;6.85;;;;;;;6.78;59.98;101383.88;6079364;29;20084;-93
2022/03/05 13:35:55;;;;;;;11.60;6.53;;;;;;;6.69;61.76;101385.13;6076516;29;20176;-92
2022/03/05 13:39:18;;;;;;;10.20;6.68;;;;;;;6.58;60.00;101377.09;6081077;29;20044;-91
2022/03/05 13:42:20;;;;;;;12.15;7.20;;;;;;;6.58;62.88;101376.28;6080799;29;20071;-92
2022/03/05 13:45:26;;;;;;;12.57;6.78;;;;;;;6.66;59.57;101376.75;6090786;29;20052;-92
2022/03/05 13:48:53;;;;;;;11.02;6.60;;;;;;;6.87;60.23;101380.00;6105735;29;20056;-92
2022/03/05 13:52:06;;;;;;;10.10;6.55;;;;;;;6.90;61.47;101374.69;6086573;29;20059;-91
2022/03/05 13:55:17;;;;;;;12.98;7.40;;;;;;;6.94;60.57;101368.50;6096392;29;20052;-92
2022/03/05 13:58:31;;;;;;;11.10;6.88;;;;;;;6.89;59.71;101375.59;6095112;29;20096;-91
2022/03/05 14:01:37;;;;;;;11.70;6.95;;;;;;;6.84;58.24;101377.59;6081750;29;20052;-92
2022/03/05 14:05:05;;;;;;;11.80;6.47;;;;;;;6.75;58.95;101375.44;6095816;29;20512;-91